Time;durP1;ratioP1;P1;durP2;ratioP2;P2;SDS_P1;SDS_P2;PMS_P1;PMS_P2;Temp;Humidity;BMP_temperature;BMP_pressure;BME280_temperature;BME280_humidity;BME280_pressure;Samples;Min_cycle;Max_cycle;Signal;HPM_P1;HPM_P2
2021/08/05 00:01:44;;;;;;;;;12.00;12.00;;;;;22.13;54.65;100575.19;5058352;27;45490;-58
2021/08/05 00:04:09;;;;;;;;;10.00;10.00;;;;;22.14;54.45;100578.75;5058208;28;45483;-58
2021/08/05 00:06:35;;;;;;;;;13.00;13.00;;;;;22.14;54.42;100573.34;5058280;28;48457;-58
2021/08/05 00:09:01;;;;;;;;;7.67;7.67;;;;;22.14;54.29;100576.03;5056382;28;45762;-58
2021/08/05 00:11:26;;;;;;;;;8.33;8.33;;;;;22.15;55.02;100566.97;5051521;28;45483;-58
2021/08/05 00:13:52;;;;;;;;;9.00;9.00;;;;;22.15;54.15;100572.38;5053744;28;46221;-58
2021/08/05 00:16:17;;;;;;;;;10.00;10.00;;;;;22.17;54.40;100570.41;5057119;28;45377;-59
2021/08/05 00:18:43;;;;;;;;;8.00;8.00;;;;;22.17;54.40;100560.47;5074235;27;45385;-58
2021/08/05 00:21:09;;;;;;;;;10.33;10.33;;;;;22.17;54.04;100552.34;5057726;28;45292;-58
2021/08/05 00:23:34;;;;;;;;;8.33;8.33;;;;;22.19;54.44;100554.94;5058696;28;45534;-59
2021/08/05 00:26:00;;;;;;;;;11.67;10.67;;;;;22.18;53.91;100543.25;5057452;28;47245;-58
2021/08/05 00:28:26;;;;;;;;;9.33;8.67;;;;;22.18;53.87;100543.25;5058764;28;45583;-58
2021/08/05 00:30:52;;;;;;;;;6.67;6.67;;;;;22.17;53.83;100549.66;5065117;28;45311;-58
2021/08/05 00:33:17;;;;;;;;;7.33;7.33;;;;;22.19;53.71;100549.53;5057803;28;45732;-58
2021/08/05 00:35:43;;;;;;;;;7.00;7.00;;;;;22.19;53.95;100552.25;5054655;28;48124;-58
2021/08/05 00:38:08;;;;;;;;;9.33;8.33;;;;;22.18;53.56;100551.38;5048132;28;46049;-59
2021/08/05 00:40:34;;;;;;;;;5.33;5.33;;;;;22.16;53.33;100541.66;5056041;28;45468;-58
2021/08/05 00:42:59;;;;;;;;;5.00;5.00;;;;;22.15;53.18;100539.94;5057429;28;45527;-58
2021/08/05 00:45:25;;;;;;;;;7.00;6.00;;;;;22.14;53.32;100535.50;5080447;27;47244;-57
2021/08/05 00:47:51;;;;;;;;;6.00;6.00;;;;;22.10;52.63;100536.69;5088993;27;45608;-57
2021/08/05 00:50:16;;;;;;;;;7.33;6.67;;;;;22.06;52.53;100537.88;5058256;28;45412;-57
2021/08/05 00:52:42;;;;;;;;;6.67;6.33;;;;;22.03;52.99;100544.34;5090147;27;45318;-57
2021/08/05 00:55:08;;;;;;;;;8.00;8.00;;;;;21.98;53.12;100542.00;5058486;28;48085;-58
2021/08/05 00:57:33;;;;;;;;;8.00;7.33;;;;;21.97;53.51;100533.97;5056949;28;45428;-58
2021/08/05 00:59:59;;;;;;;;;11.33;10.33;;;;;21.97;53.55;100542.06;5058323;28;45477;-57
2021/08/05 01:02:31;;;;;;;;;5.00;5.00;;;;;21.96;53.54;100543.91;5045252;28;45257;-57
2021/08/05 01:04:58;;;;;;;;;7.33;6.33;;;;;21.96;52.89;100541.22;5055522;28;47032;-57
2021/08/05 01:07:32;;;;;;;;;6.00;6.00;;;;;21.94;52.91;100535.06;5061530;28;45482;-57
2021/08/05 01:10:11;;;;;;;;;7.67;7.67;;;;;21.93;52.87;100533.31;5059182;28;45495;-57
2021/08/05 01:12:46;;;;;;;;;7.00;7.00;;;;;21.92;52.81;100526.19;5061214;27;45397;-57
2021/08/05 01:15:13;;;;;;;;;8.00;7.00;;;;;21.92;53.12;100522.63;5061246;28;47994;-57
2021/08/05 01:17:44;;;;;;;;;6.33;5.67;;;;;21.92;53.15;100520.78;5052455;28;45880;-57
2021/08/05 01:20:15;;;;;;;;;9.00;7.67;;;;;21.93;52.97;100532.47;5061330;28;45298;-58
2021/08/05 01:22:52;;;;;;;;;7.67;6.33;;;;;21.93;53.21;100521.66;5060794;27;45461;-58
2021/08/05 01:25:46;;;;;;;;;8.33;8.33;;;;;21.92;52.92;100514.53;5060887;28;48310;-57
2021/08/05 01:28:13;;;;;;;;;9.00;9.00;;;;;21.90;53.02;100522.75;5051865;28;45357;-58
2021/08/05 01:30:44;;;;;;;;;8.67;8.67;;;;;21.90;52.97;100514.66;5059101;28;45468;-58
2021/08/05 01:33:12;;;;;;;;;10.25;10.00;;;;;21.90;53.54;100517.34;5051660;28;45421;-57
2021/08/05 01:35:40;;;;;;;;;10.67;8.00;;;;;21.93;53.54;100518.97;5059726;28;48410;-57
2021/08/05 01:38:07;;;;;;;;;8.67;8.00;;;;;21.94;53.50;100515.28;5053947;28;45298;-57
2021/08/05 01:40:33;;;;;;;;;8.67;7.67;;;;;21.92;53.41;100515.38;5053231;28;45411;-58
2021/08/05 01:42:59;;;;;;;;;7.75;7.00;;;;;21.92;52.96;100520.78;5060739;28;45403;-58
2021/08/05 01:45:26;;;;;;;;;9.33;8.33;;;;;21.93;52.89;100522.53;5056104;28;46691;-58
2021/08/05 01:47:51;;;;;;;;;11.00;9.00;;;;;21.93;53.28;100518.97;5059249;28;45329;-58
2021/08/05 01:50:17;;;;;;;;;12.00;9.50;;;;;21.93;53.71;100511.72;5060874;28;45361;-58
2021/08/05 01:52:45;;;;;;;;;9.00;8.00;;;;;21.94;53.60;100515.28;5060299;28;45693;-57
2021/08/05 01:55:12;;;;;;;;;11.50;11.50;;;;;21.95;53.11;100503.50;5060234;28;47775;-57
2021/08/05 01:57:37;;;;;;;;;11.25;9.75;;;;;21.95;52.98;100503.50;5059272;28;46121;-57
2021/08/05 02:00:05;;;;;;;;;8.67;8.67;;;;;21.94;53.17;100497.22;5060922;28;45377;-57
2021/08/05 02:02:31;;;;;;;;;8.25;8.25;;;;;21.95;53.09;100498.09;5060771;28;45631;-58
2021/08/05 02:05:22;;;;;;;;;10.25;10.25;;;;;21.95;53.25;100489.97;5060363;28;47509;-58
2021/08/05 02:07:54;;;;;;;;;11.00;10.50;;;;;21.92;53.11;100487.50;5060544;28;45322;-57
2021/08/05 02:10:45;;;;;;;;;11.33;10.00;;;;;21.88;53.04;100483.31;5059006;28;45716;-57
2021/08/05 02:13:32;;;;;;;;;11.67;9.67;;;;;21.82;53.85;100490.00;5061061;28;45511;-58
2021/08/05 02:16:00;;;;;;;;;9.67;8.67;;;;;21.83;53.77;100482.75;5060513;27;48439;-58
2021/08/05 02:18:29;;;;;;;;;9.00;9.00;;;;;21.84;53.60;100481.78;5060928;28;45290;-58
2021/08/05 02:20:56;;;;;;;;;9.67;9.67;;;;;21.84;53.54;100479.09;5060427;28;45730;-58
2021/08/05 02:23:22;;;;;;;;;9.67;8.67;;;;;21.84;53.10;100474.53;5061369;28;45455;-58
2021/08/05 02:25:50;;;;;;;;;13.33;11.00;;;;;21.86;53.23;100469.06;5059390;28;47214;-58
2021/08/05 02:28:19;;;;;;;;;10.25;9.50;;;;;21.86;53.64;100471.75;5060817;28;46051;-58
2021/08/05 02:30:45;;;;;;;;;12.00;10.00;;;;;21.84;53.88;100473.69;5057680;28;45412;-57
2021/08/05 02:33:13;;;;;;;;;12.33;10.67;;;;;21.86;53.38;100471.75;5055466;28;45551;-58
2021/08/05 02:35:43;;;;;;;;;11.00;11.00;;;;;21.84;53.76;100471.84;5059431;28;48305;-57
2021/08/05 02:38:09;;;;;;;;;11.33;11.33;;;;;21.84;53.34;100466.44;5051227;28;46178;-57
2021/08/05 02:40:37;;;;;;;;;10.33;10.33;;;;;21.83;53.49;100472.81;5055635;28;45555;-57
2021/08/05 02:43:06;;;;;;;;;10.33;10.33;;;;;21.82;53.97;100470.22;5058935;28;45325;-57
2021/08/05 02:45:34;;;;;;;;;8.00;8.00;;;;;21.82;53.73;100467.53;5057230;28;47243;-57
2021/08/05 02:48:01;;;;;;;;;10.50;10.50;;;;;21.82;54.10;100463.00;5059994;28;45662;-57
2021/08/05 02:50:31;;;;;;;;;9.75;9.75;;;;;21.84;54.04;100471.84;5059791;28;45510;-57
2021/08/05 02:52:57;;;;;;;;;13.75;13.75;;;;;21.85;53.78;100472.72;5059791;28;45271;-57
2021/08/05 02:55:24;;;;;;;;;11.33;11.33;;;;;21.84;54.27;100461.03;5053411;28;48015;-57
2021/08/05 02:57:51;;;;;;;;;13.00;11.00;;;;;21.83;53.77;100461.16;5058039;28;45698;-58
2021/08/05 03:00:18;;;;;;;;;13.25;11.75;;;;;21.84;54.14;100469.13;5058188;28;45423;-57
2021/08/05 03:02:44;;;;;;;;;12.00;11.67;;;;;21.83;53.94;100467.41;5050640;28;45682;-56
2021/08/05 03:05:11;;;;;;;;;12.33;12.33;;;;;21.84;54.12;100455.63;5059459;27;45844;-56
2021/08/05 03:07:37;;;;;;;;;12.33;11.00;;;;;21.86;54.05;100463.66;5058342;28;45293;-56
2021/08/05 03:10:05;;;;;;;;;12.33;10.67;;;;;21.82;54.39;100454.88;5055717;28;45323;-56
2021/08/05 03:12:30;;;;;;;;;10.00;10.00;;;;;21.79;54.24;100457.81;5059751;28;45460;-58
2021/08/05 03:14:56;;;;;;;;;11.33;11.33;;;;;21.80;54.38;100454.13;5074590;28;47968;-56
2021/08/05 03:17:21;;;;;;;;;11.50;11.25;;;;;21.80;54.79;100454.13;5055029;28;45436;-58
2021/08/05 03:19:47;;;;;;;;;12.00;12.00;;;;;21.82;54.45;100449.50;5058156;28;45351;-56
2021/08/05 03:22:13;;;;;;;;;12.75;12.75;;;;;21.83;54.43;100447.66;5060028;28;45767;-56
2021/08/05 03:24:38;;;;;;;;;9.75;8.00;;;;;21.84;54.34;100444.84;5058906;28;48241;-56
2021/08/05 03:27:04;;;;;;;;;12.00;12.00;;;;;21.84;54.41;100450.22;5057748;28;45612;-56
2021/08/05 03:29:29;;;;;;;;;13.33;13.33;;;;;21.84;54.32;100447.53;5090566;27;45459;-56
2021/08/05 03:31:55;;;;;;;;;15.25;13.50;;;;;21.84;54.72;100441.28;5054645;28;45278;-55
2021/08/05 03:34:20;;;;;;;;;11.67;11.33;;;;;21.79;55.08;100447.00;5092090;27;46822;-56
2021/08/05 03:36:45;;;;;;;;;13.25;12.25;;;;;21.74;54.62;100435.69;5057961;28;45378;-57
2021/08/05 03:39:11;;;;;;;;;13.00;10.00;;;;;21.72;54.54;100440.31;5088119;27;45792;-57
2021/08/05 03:41:36;;;;;;;;;13.00;10.67;;;;;21.72;55.28;100429.50;5057879;28;45447;-57
2021/08/05 03:44:02;;;;;;;;;13.50;12.25;;;;;21.71;55.35;100415.16;5053362;28;47759;-56
2021/08/05 03:46:27;;;;;;;;;11.00;10.33;;;;;21.73;54.94;100423.16;5024651;28;45491;-58
2021/08/05 03:48:53;;;;;;;;;10.50;10.25;;;;;21.74;54.97;100424.88;5058085;28;45480;-56
2021/08/05 03:51:18;;;;;;;;;13.50;13.25;;;;;21.73;55.35;100437.53;5058642;28;45464;-56
2021/08/05 03:53:44;;;;;;;;;14.00;12.50;;;;;21.75;54.95;100437.41;5041170;28;47941;-56
2021/08/05 03:56:09;;;;;;;;;13.75;13.00;;;;;21.75;55.19;100429.31;5059556;28;46221;-55
2021/08/05 03:58:35;;;;;;;;;11.67;11.67;;;;;21.76;55.69;100432.88;5057838;28;45436;-55
2021/08/05 04:01:00;;;;;;;;;13.33;13.33;;;;;21.75;55.82;100423.91;5057920;28;45461;-56
2021/08/05 04:03:26;;;;;;;;;15.50;14.25;;;;;21.76;55.48;100422.06;5058078;28;46820;-57
2021/08/05 04:05:51;;;;;;;;;17.00;15.00;;;;;21.78;55.18;100430.91;5058364;28;45393;-56
2021/08/05 04:08:16;;;;;;;;;14.00;14.00;;;;;21.76;55.85;100425.63;5074193;27;45297;-56
2021/08/05 04:10:42;;;;;;;;;15.00;15.00;;;;;21.78;55.74;100428.22;5074276;27;45416;-57
2021/08/05 04:13:07;;;;;;;;;13.00;13.00;;;;;21.79;55.96;100420.00;5058595;28;48266;-56
2021/08/05 04:15:33;;;;;;;;;13.67;12.33;;;;;21.79;55.89;100425.41;5074437;27;45366;-56
2021/08/05 04:17:58;;;;;;;;;15.75;14.25;;;;;21.79;55.56;100420.00;5059616;28;45369;-56
2021/08/05 04:20:24;;;;;;;;;16.25;16.25;;;;;21.77;55.71;100424.66;5060492;28;45385;-55
2021/08/05 04:22:49;;;;;;;;;17.00;15.75;;;;;21.77;55.78;100423.81;5040880;28;46747;-56
2021/08/05 04:25:16;;;;;;;;;15.33;15.00;;;;;21.76;56.01;100420.22;5060470;28;45587;-57
2021/08/05 04:27:42;;;;;;;;;15.00;15.00;;;;;21.76;55.88;100422.06;5059497;28;45302;-57
2021/08/05 04:30:10;;;;;;;;;13.00;13.00;;;;;21.73;55.58;100424.03;5059444;28;45440;-57
2021/08/05 04:32:37;;;;;;;;;16.33;15.33;;;;;21.70;55.71;100421.53;5055073;28;48307;-57
2021/08/05 04:35:04;;;;;;;;;16.75;14.00;;;;;21.67;55.77;100426.28;5056979;28;45402;-57
2021/08/05 04:37:29;;;;;;;;;15.50;13.75;;;;;21.64;56.13;100423.81;5056555;28;45450;-58
2021/08/05 04:39:55;;;;;;;;;17.00;14.33;;;;;21.60;55.96;100423.19;5059966;28;45381;-58
2021/08/05 04:42:21;;;;;;;;;17.00;15.00;;;;;21.58;55.70;100419.72;5094842;27;48076;-58
2021/08/05 04:44:46;;;;;;;;;14.00;14.00;;;;;21.56;56.33;100424.38;5043767;28;45362;-57
2021/08/05 04:47:12;;;;;;;;;14.00;14.00;;;;;21.52;56.18;100420.16;5060665;28;45412;-58
2021/08/05 04:49:37;;;;;;;;;15.33;15.00;;;;;21.49;56.65;100417.69;5062353;28;45305;-58
2021/08/05 04:52:05;;;;;;;;;16.00;13.00;;;;;21.48;56.25;100413.28;5077167;27;47121;-58
2021/08/05 04:54:30;;;;;;;;;16.75;16.00;;;;;21.47;56.65;100421.44;5062160;27;46486;-58
2021/08/05 04:56:56;;;;;;;;;15.75;15.75;;;;;21.42;56.86;100416.41;5061609;28;45505;-57
2021/08/05 04:59:21;;;;;;;;;14.25;12.50;;;;;21.41;56.86;100429.03;5078116;27;45367;-57
2021/08/05 05:01:47;;;;;;;;;15.00;13.33;;;;;21.40;56.87;100423.75;5081582;27;46996;-56
2021/08/05 05:04:13;;;;;;;;;12.00;11.00;;;;;21.39;56.30;100427.41;5049339;28;45508;-55
2021/08/05 05:06:39;;;;;;;;;15.33;14.33;;;;;21.40;57.03;100440.81;5056748;28;45721;-59
2021/08/05 05:09:05;;;;;;;;;13.00;13.00;;;;;21.40;57.15;100440.81;5052710;28;45959;-59
2021/08/05 05:11:31;;;;;;;;;16.00;14.00;;;;;21.42;57.28;100438.84;5058972;28;46797;-60
2021/08/05 05:13:57;;;;;;;;;13.33;13.33;;;;;21.44;57.41;100439.59;5060677;28;45346;-59
2021/08/05 05:16:22;;;;;;;;;13.00;13.00;;;;;21.45;57.46;100448.56;5056681;28;45492;-59
2021/08/05 05:18:48;;;;;;;;;15.00;14.67;;;;;21.47;57.32;100437.66;5058979;28;45655;-59
2021/08/05 05:21:14;;;;;;;;;12.67;10.67;;;;;21.45;57.05;100430.53;5093839;27;46942;-60
2021/08/05 05:23:39;;;;;;;;;19.50;18.50;;;;;21.44;57.44;100438.75;5061229;28;45681;-58
2021/08/05 05:26:05;;;;;;;;;20.75;18.75;;;;;21.47;57.44;100435.84;5091542;27;45371;-58
2021/08/05 05:28:30;;;;;;;;;14.50;14.50;;;;;21.49;57.64;100442.00;5059140;28;45510;-59
2021/08/05 05:30:57;;;;;;;;;13.00;13.00;;;;;21.50;56.93;100432.91;5052862;28;47774;-60
2021/08/05 05:33:23;;;;;;;;;14.33;13.00;;;;;21.51;57.26;100439.19;5080461;27;45848;-60
2021/08/05 05:35:49;;;;;;;;;12.67;12.67;;;;;21.50;57.05;100440.16;5061415;28;45403;-60
2021/08/05 05:38:14;;;;;;;;;11.00;11.00;;;;;21.48;56.73;100431.31;5074546;28;45436;-57
2021/08/05 05:40:41;;;;;;;;;14.00;14.00;;;;;21.48;56.64;100437.56;5086887;27;47815;-58
2021/08/05 05:43:07;;;;;;;;;13.00;12.00;;;;;21.49;56.41;100433.91;5047332;28;45434;-58
2021/08/05 05:45:33;;;;;;;;;15.00;11.33;;;;;21.50;56.51;100429.34;5060595;28;45432;-58
2021/08/05 05:48:00;;;;;;;;;14.75;14.75;;;;;21.52;56.55;100440.91;5092956;27;45419;-58
2021/08/05 05:50:26;;;;;;;;;13.50;13.00;;;;;21.54;56.53;100445.22;5075555;28;48499;-58
2021/08/05 05:52:52;;;;;;;;;13.67;12.33;;;;;21.53;56.27;100440.78;5058545;28;45851;-58
2021/08/05 05:55:18;;;;;;;;;13.67;13.00;;;;;21.55;56.68;100444.25;5057003;28;45631;-57
2021/08/05 05:57:43;;;;;;;;;11.33;11.33;;;;;21.57;56.45;100446.81;5070110;27;45489;-58
2021/08/05 06:00:11;;;;;;;;;17.00;12.67;;;;;21.58;56.19;100445.84;5059695;28;47765;-57
2021/08/05 06:02:36;;;;;;;;;15.33;13.67;;;;;21.58;56.13;100451.25;5058248;28;45411;-57
2021/08/05 06:05:02;;;;;;;;;11.67;11.67;;;;;21.58;55.92;100446.72;5053029;28;45907;-58
2021/08/05 06:07:28;;;;;;;;;15.00;13.33;;;;;21.57;56.39;100453.09;5060900;28;45423;-57
2021/08/05 06:09:54;;;;;;;;;15.00;15.00;;;;;21.58;55.71;100457.50;5055794;28;47487;-58
2021/08/05 06:12:19;;;;;;;;;12.00;12.00;;;;;21.57;56.04;100463.91;5055743;28;45625;-58
2021/08/05 06:14:46;;;;;;;;;15.00;15.00;;;;;21.58;55.69;100462.91;5059359;28;45907;-58
2021/08/05 06:17:12;;;;;;;;;13.67;13.67;;;;;21.58;56.15;100467.47;5058826;28;45416;-58
2021/08/05 06:19:37;;;;;;;;;16.00;15.33;;;;;21.57;56.07;100457.63;5072923;27;45432;-59
2021/08/05 06:22:03;;;;;;;;;13.00;13.00;;;;;21.53;55.74;100461.53;5059643;28;45423;-57
2021/08/05 06:24:29;;;;;;;;;13.67;13.33;;;;;21.50;55.81;100464.47;5061135;28;45513;-57
2021/08/05 06:26:54;;;;;;;;;13.67;12.33;;;;;21.49;56.04;100465.44;5059949;28;45775;-57
2021/08/05 06:29:20;;;;;;;;;12.33;12.00;;;;;21.50;55.91;100475.25;5056940;28;47923;-57
2021/08/05 06:31:45;;;;;;;;;14.00;12.33;;;;;21.50;55.88;100475.25;5087801;27;45738;-59
2021/08/05 06:34:11;;;;;;;;;12.33;10.33;;;;;21.51;55.83;100469.75;5048784;28;45511;-58
2021/08/05 06:36:37;;;;;;;;;19.00;15.33;;;;;21.51;55.90;100474.28;5063457;28;45371;-58
2021/08/05 06:39:04;;;;;;;;;12.33;12.33;;;;;21.52;56.31;100474.16;5057208;28;47192;-58
2021/08/05 06:41:32;;;;;;;;;17.00;15.50;;;;;21.52;56.24;100462.50;5059019;28;45659;-58
2021/08/05 06:43:57;;;;;;;;;15.00;14.00;;;;;21.54;56.01;100471.34;5058483;28;45514;-58
2021/08/05 06:46:25;;;;;;;;;15.33;14.00;;;;;21.58;56.00;100462.06;5057492;28;45679;-57
2021/08/05 06:48:50;;;;;;;;;13.67;13.67;;;;;21.63;55.77;100465.31;5076443;27;46844;-57
2021/08/05 06:51:16;;;;;;;;;16.50;14.50;;;;;21.66;55.48;100454.28;5058260;28;45560;-59
2021/08/05 06:53:41;;;;;;;;;13.00;12.00;;;;;21.66;55.33;100457.84;5083412;27;45782;-59
2021/08/05 06:56:07;;;;;;;;;14.00;14.00;;;;;21.68;55.86;100460.44;5058522;28;45669;-59
2021/08/05 06:58:32;;;;;;;;;11.33;10.33;;;;;21.69;55.67;100449.50;5038348;28;45520;-59
2021/08/05 07:01:00;;;;;;;;;11.00;11.00;;;;;21.73;55.46;100451.03;5058724;28;45833;-59
2021/08/05 07:03:26;;;;;;;;;12.00;11.67;;;;;21.80;55.21;100459.53;5054521;28;45412;-59
2021/08/05 07:05:51;;;;;;;;;14.33;13.67;;;;;21.83;55.36;100458.44;5059328;28;45413;-59
2021/08/05 07:08:17;;;;;;;;;12.00;12.00;;;;;21.85;54.81;100462.78;5079486;27;46787;-59
2021/08/05 07:10:42;;;;;;;;;11.33;11.33;;;;;21.88;55.02;100456.31;5061225;28;45571;-59
2021/08/05 07:13:08;;;;;;;;;11.67;11.67;;;;;21.89;54.83;100460.72;5059270;28;45710;-59
2021/08/05 07:15:33;;;;;;;;;11.33;11.33;;;;;21.92;55.18;100471.31;5044070;28;45584;-59
2021/08/05 07:17:59;;;;;;;;;16.00;14.33;;;;;21.93;55.19;100471.19;5074413;28;48020;-59
2021/08/05 07:20:25;;;;;;;;;15.67;15.67;;;;;21.94;54.96;100474.75;5058191;28;45695;-59
2021/08/05 07:22:50;;;;;;;;;12.33;12.33;;;;;21.92;54.40;100469.47;5059326;28;45518;-59
2021/08/05 07:25:17;;;;;;;;;13.00;11.67;;;;;21.89;54.56;100466.13;5056055;28;45493;-59
2021/08/05 07:27:44;;;;;;;;;13.33;13.33;;;;;21.88;54.70;100467.09;5057437;28;45364;-59
2021/08/05 07:30:13;;;;;;;;;14.00;14.00;;;;;21.88;54.55;100464.41;5058740;28;46057;-59
2021/08/05 07:32:39;;;;;;;;;13.33;13.33;;;;;21.93;54.82;100459.50;5055586;28;45473;-59
2021/08/05 07:35:05;;;;;;;;;18.00;16.75;;;;;21.98;54.48;100463.63;5057868;28;45458;-59
2021/08/05 07:37:31;;;;;;;;;13.50;12.50;;;;;22.00;54.17;100464.38;5049691;28;46962;-59
2021/08/05 07:39:56;;;;;;;;;14.33;12.00;;;;;21.98;54.27;100469.03;5056333;28;45393;-60
2021/08/05 07:42:22;;;;;;;;;15.00;15.00;;;;;21.99;53.95;100467.19;5058400;28;45299;-59
2021/08/05 07:44:48;;;;;;;;;11.00;11.00;;;;;22.01;54.62;100462.53;5058076;28;45652;-60
2021/08/05 07:47:14;;;;;;;;;12.00;12.00;;;;;22.04;54.41;100462.31;5092756;27;47907;-59
2021/08/05 07:49:41;;;;;;;;;16.00;16.00;;;;;22.09;53.67;100461.97;5066949;28;45464;-59
2021/08/05 07:52:07;;;;;;;;;14.33;13.33;;;;;22.14;54.01;100459.81;5056154;28;45500;-59
2021/08/05 07:54:33;;;;;;;;;15.00;13.00;;;;;22.20;53.88;100457.50;5075046;27;45481;-59
2021/08/05 07:56:59;;;;;;;;;14.00;14.00;;;;;22.27;53.78;100453.38;5073100;27;46868;-60
2021/08/05 07:59:25;;;;;;;;;11.00;11.00;;;;;22.35;53.85;100457.34;5055147;28;45829;-59
2021/08/05 08:01:51;;;;;;;;;16.67;16.33;;;;;22.41;53.26;100449.66;5072943;27;45435;-59
2021/08/05 08:04:17;;;;;;;;;13.00;13.00;;;;;22.46;53.10;100452.84;5057260;28;45408;-59
2021/08/05 08:06:42;;;;;;;;;13.00;12.00;;;;;22.51;52.99;100452.53;5039710;28;47056;-59
2021/08/05 08:09:08;;;;;;;;;14.33;11.00;;;;;22.55;52.77;100446.75;5056971;28;45314;-58
2021/08/05 08:11:34;;;;;;;;;11.67;10.67;;;;;22.57;52.79;100449.34;5057507;28;45786;-59
2021/08/05 08:14:00;;;;;;;;;11.33;11.00;;;;;22.60;52.26;100447.25;5072389;27;45469;-61
2021/08/05 08:16:26;;;;;;;;;13.00;12.67;;;;;22.62;52.78;100447.19;5040078;28;46994;-61
2021/08/05 08:18:52;;;;;;;;;16.67;14.00;;;;;22.62;52.63;100444.47;5072683;27;45452;-61
2021/08/05 08:21:18;;;;;;;;;11.33;11.33;;;;;22.67;52.43;100444.09;5057995;28;45554;-61
2021/08/05 08:23:45;;;;;;;;;15.67;15.67;;;;;22.71;52.62;100443.75;5056523;27;45357;-61
2021/08/05 08:26:10;;;;;;;;;13.00;11.50;;;;;22.74;52.28;100440.84;5021721;28;45673;-61
2021/08/05 08:28:36;;;;;;;;;12.67;12.67;;;;;22.79;52.49;100437.75;5053550;28;45370;-61
2021/08/05 08:31:02;;;;;;;;;8.00;8.00;;;;;22.85;52.24;100442.72;5055395;28;45304;-61
2021/08/05 08:33:27;;;;;;;;;13.25;12.25;;;;;22.88;51.97;100437.94;5088359;27;45902;-61
2021/08/05 08:35:53;;;;;;;;;13.00;13.00;;;;;22.90;51.97;100427.88;5090928;27;45540;-61
2021/08/05 08:38:22;;;;;;;;;10.00;10.00;;;;;22.92;51.71;100429.59;5056653;28;45365;-61
2021/08/05 08:40:49;;;;;;;;;10.00;10.00;;;;;22.91;51.73;100420.63;5056447;28;45510;-61
2021/08/05 08:43:14;;;;;;;;;11.25;11.00;;;;;22.93;51.59;100417.78;5056567;28;45452;-61
2021/08/05 08:45:40;;;;;;;;;14.50;13.50;;;;;22.98;51.54;100426.38;5073409;27;47212;-60
2021/08/05 08:48:06;;;;;;;;;10.75;10.00;;;;;23.03;52.15;100422.38;5050535;28;45604;-61
2021/08/05 08:50:33;;;;;;;;;11.00;10.75;;;;;;;;5080872;27;45813;-60
2021/08/05 08:53:08;;;;;;;;;14.25;14.25;;;;;23.12;51.33;100427.06;5090185;27;45624;-60
2021/08/05 08:55:35;;;;;;;;;13.67;12.33;;;;;23.14;51.37;100425.09;5048876;28;47992;-60
2021/08/05 08:58:05;;;;;;;;;12.00;12.00;;;;;23.17;51.18;100422.13;5071313;28;45635;-60
2021/08/05 09:00:37;;;;;;;;;11.33;11.33;;;;;23.20;51.36;100423.72;5039812;28;45417;-61
2021/08/05 09:03:03;;;;;;;;;13.00;13.00;;;;;23.22;50.62;100426.31;5083348;27;45756;-59
2021/08/05 09:05:29;;;;;;;;;14.67;14.67;;;;;23.23;50.79;100422.63;5056325;28;48436;-60
2021/08/05 09:07:58;;;;;;;;;12.67;12.33;;;;;23.25;50.98;100424.25;5055823;28;45329;-60
2021/08/05 09:10:24;;;;;;;;;10.33;10.33;;;;;23.27;50.59;100427.69;5065306;27;45467;-60
2021/08/05 09:12:58;;;;;;;;;14.00;12.25;;;;;23.27;50.96;100426.84;5055906;28;45617;-60
2021/08/05 09:15:45;;;;;;;;;12.00;12.00;;;;;23.29;50.52;100424.88;5081507;27;46956;-60
2021/08/05 09:18:38;;;;;;;;;11.33;11.33;;;;;23.28;50.46;100431.25;5070998;27;45648;-60
2021/08/05 09:21:16;;;;;;;;;12.75;12.00;;;;;23.24;50.54;100427.91;5056987;28;45468;-61
2021/08/05 09:23:48;;;;;;;;;15.50;13.50;;;;;23.23;50.48;100425.34;5052678;28;45386;-60
2021/08/05 09:26:42;;;;;;;;;11.67;10.33;;;;;23.25;50.64;100428.78;5086112;27;47747;-61
2021/08/05 09:29:24;;;;;;;;;13.67;12.67;;;;;23.27;50.92;100421.41;5059711;28;45822;-61
2021/08/05 09:31:54;;;;;;;;;10.67;9.67;;;;;23.36;50.50;100426.09;5087986;27;45408;-61
2021/08/05 09:34:31;;;;;;;;;12.00;12.00;;;;;23.47;50.60;100429.66;5060409;28;45691;-61
2021/08/05 09:37:05;;;;;;;;;11.00;11.00;;;;;23.58;50.45;100434.25;5059777;28;47178;-61
2021/08/05 09:39:33;;;;;;;;;13.00;12.00;;;;;23.65;50.02;100423.81;5071422;27;45728;-61
2021/08/05 09:42:01;;;;;;;;;12.00;11.33;;;;;23.70;49.80;100429.69;5061210;28;45434;-61
2021/08/05 09:44:38;;;;;;;;;13.25;13.25;;;;;23.73;49.87;100424.88;5061197;28;45663;-61
2021/08/05 09:47:18;;;;;;;;;11.00;11.00;;;;;23.73;49.68;100421.31;5093859;27;46936;-61
2021/08/05 09:49:46;;;;;;;;;12.00;11.00;;;;;23.69;49.53;100419.84;5060510;28;45295;-61
2021/08/05 09:52:14;;;;;;;;;10.50;10.50;;;;;23.66;49.70;100420.09;5061312;28;45624;-60
2021/08/05 09:54:48;;;;;;;;;12.00;12.00;;;;;23.65;49.50;100419.25;5061077;27;45456;-59
2021/08/05 09:57:30;;;;;;;;;9.33;9.33;;;;;23.63;49.30;100414.91;5051378;28;48531;-62
2021/08/05 10:00:05;;;;;;;;;12.00;11.67;;;;;23.58;49.45;100406.31;5086196;27;45473;-61
2021/08/05 10:02:45;;;;;;;;;13.00;13.00;;;;;23.52;49.16;100398.66;5061664;28;45499;-61
2021/08/05 10:05:12;;;;;;;;;11.00;11.00;;;;;23.47;49.39;100399.88;5061110;28;45376;-62
2021/08/05 10:07:43;;;;;;;;;12.67;12.00;;;;;23.47;49.48;100397.16;5039529;28;47977;-59
2021/08/05 10:10:09;;;;;;;;;11.67;11.67;;;;;23.51;49.44;100395.09;5051029;28;45451;-62
2021/08/05 10:12:35;;;;;;;;;11.00;10.00;;;;;23.55;49.35;100393.00;5075819;27;45365;-62
2021/08/05 10:15:19;;;;;;;;;12.67;11.67;;;;;23.56;48.98;100390.16;5060308;27;45536;-61
2021/08/05 10:17:49;;;;;;;;;8.67;8.33;;;;;23.54;48.86;100378.59;5049081;28;46917;-61
2021/08/05 10:20:14;;;;;;;;;7.00;7.00;;;;;23.55;48.78;100380.31;5059808;28;45596;-61
2021/08/05 10:22:41;;;;;;;;;7.67;7.67;;;;;23.61;49.09;100373.53;5059338;28;45436;-60
2021/08/05 10:25:12;;;;;;;;;7.00;7.00;;;;;23.73;48.98;100373.41;5092740;27;45346;-61
2021/08/05 10:27:38;;;;;;;;;7.67;7.67;;;;;23.87;48.72;100368.69;5042548;28;45786;-61
2021/08/05 10:30:07;;;;;;;;;8.00;8.00;;;;;23.96;48.45;100371.50;5059233;28;45371;-62
2021/08/05 10:32:33;;;;;;;;;8.33;8.33;;;;;24.02;47.80;100372.88;5059087;28;45602;-62
2021/08/05 10:35:00;;;;;;;;;7.33;7.33;;;;;24.03;47.44;100372.72;5058249;28;45431;-61
2021/08/05 10:37:26;;;;;;;;;7.00;7.00;;;;;24.02;47.73;100364.75;5092555;27;46954;-62
2021/08/05 10:39:52;;;;;;;;;6.00;6.00;;;;;23.95;47.47;100361.66;5063374;28;45432;-61
2021/08/05 10:42:19;;;;;;;;;9.00;8.33;;;;;23.92;47.36;100355.63;5060366;28;45546;-62
2021/08/05 10:44:47;;;;;;;;;7.67;7.67;;;;;23.91;47.85;100360.19;5059569;28;45487;-62
2021/08/05 10:47:33;;;;;;;;;7.67;5.33;;;;;23.98;47.49;100357.81;5087902;27;46627;-62
2021/08/05 10:50:03;;;;;;;;;5.00;5.00;;;;;24.10;47.53;100343.25;5058128;28;45388;-62
2021/08/05 10:52:37;;;;;;;;;6.00;5.67;;;;;24.23;47.10;100346.66;5055637;28;45495;-62
2021/08/05 10:55:04;;;;;;;;;3.00;3.00;;;;;24.34;46.54;100343.06;5058781;28;45638;-62
2021/08/05 10:57:30;;;;;;;;;5.33;4.33;;;;;24.43;46.38;100341.44;5052803;28;47116;-62
2021/08/05 11:00:11;;;;;;;;;3.33;2.33;;;;;24.52;45.83;100343.34;5058956;28;45432;-61
2021/08/05 11:02:50;;;;;;;;;5.00;5.00;;;;;24.57;45.78;100344.66;5058787;28;45456;-61
2021/08/05 11:05:22;;;;;;;;;3.67;3.67;;;;;24.60;45.63;100340.84;5063699;27;45577;-62
2021/08/05 11:08:14;;;;;;;;;6.00;6.00;;;;;24.58;45.57;100331.97;5092124;27;47828;-61
2021/08/05 11:10:39;;;;;;;;;5.00;4.00;;;;;24.54;45.42;100331.38;5049177;28;45558;-62
2021/08/05 11:13:08;;;;;;;;;6.00;6.00;;;;;24.49;45.07;100336.31;5042437;28;45724;-62
2021/08/05 11:15:34;;;;;;;;;5.67;5.67;;;;;24.46;45.08;100330.31;5074253;27;45512;-60
2021/08/05 11:18:02;;;;;;;;;5.00;5.00;;;;;24.47;45.12;100332.88;5085285;27;48113;-61